Chautauqua, Kansas
Current Conditions -  °F | °C
As of 10:53 AM on Saturday 20 Dec 2014 (Local Time) from KBVO Reporting Station
Overcast Overcast  
Wind Chill: 37°   Ceiling: 2500
Heat Index: 43°   Visibility: 10mi
Dew Point: 36°   Wind: 10mph
Humidity: 76%   Direction: 160°SSE
Pressure: 30.25"   Gusts: NA
Location:  37.02°N, 96.18°W
Report Text: KBVO 201653Z 16009KT 10SM SCT017 OVC025 06/02 A3025 RMK AO2 SLP242 T00610022
Loading
Personal Weather Stations






























Interactive Weather Map New forecast layout! Learn more

10-Day Weather Forecast

Advertisements
Track Severe Weather on mobile